sensor_id;sensor_type;location;lat;lon;timestamp;P1;durP1;ratioP1;P2;durP2;ratioP2
23252;SDS011;11795;47.054;15.408;2022-11-21T00:00:00;17.9;;;13.2;;
23252;SDS011;11795;47.054;15.408;2022-11-21T00:02:00;17.9;;;13.2;;
23252;SDS011;11795;47.054;15.408;2022-11-21T00:04:00;14.2;;;11.2;;
23252;SDS011;11795;47.054;15.408;2022-11-21T00:06:00;14.2;;;11.2;;
23252;SDS011;11795;47.054;15.408;2022-11-21T00:08:00;14.2;;;11.2;;
23252;SDS011;11795;47.054;15.408;2022-11-21T00:10:00;12.9;;;10.1;;
23252;SDS011;11795;47.054;15.408;2022-11-21T00:12:00;12.9;;;10.1;;
23252;SDS011;11795;47.054;15.408;2022-11-21T00:14:00;12.0;;;9.5;;
23252;SDS011;11795;47.054;15.408;2022-11-21T00:16:02;12.0;;;9.5;;
23252;SDS011;11795;47.054;15.408;2022-11-21T00:18:00;12.0;;;9.5;;
23252;SDS011;11795;47.054;15.408;2022-11-21T00:20:00;13.8;;;11.1;;
23252;SDS011;11795;47.054;15.408;2022-11-21T00:22:00;13.8;;;11.1;;
23252;SDS011;11795;47.054;15.408;2022-11-21T00:24:00;15.5;;;11.8;;
23252;SDS011;11795;47.054;15.408;2022-11-21T00:26:02;15.5;;;11.8;;
23252;SDS011;11795;47.054;15.408;2022-11-21T00:28:00;15.5;;;11.8;;
23252;SDS011;11795;47.054;15.408;2022-11-21T00:30:00;15.8;;;12.0;;
23252;SDS011;11795;47.054;15.408;2022-11-21T00:32:00;15.8;;;12.0;;
23252;SDS011;11795;47.054;15.408;2022-11-21T00:34:00;14.2;;;10.9;;
23252;SDS011;11795;47.054;15.408;2022-11-21T00:36:04;14.2;;;10.9;;
23252;SDS011;11795;47.054;15.408;2022-11-21T00:38:00;14.2;;;10.9;;
23252;SDS011;11795;47.054;15.408;2022-11-21T00:40:00;14.2;;;10.9;;
23252;SDS011;11795;47.054;15.408;2022-11-21T00:42:00;14.2;;;10.9;;
23252;SDS011;11795;47.054;15.408;2022-11-21T00:44:00;12.9;;;10.3;;
23252;SDS011;11795;47.054;15.408;2022-11-21T00:46:01;12.9;;;10.3;;
23252;SDS011;11795;47.054;15.408;2022-11-21T00:48:00;12.9;;;10.3;;
23252;SDS011;11795;47.054;15.408;2022-11-21T00:50:00;14.7;;;10.9;;
23252;SDS011;11795;47.054;15.408;2022-11-21T00:52:00;14.7;;;10.9;;
23252;SDS011;11795;47.054;15.408;2022-11-21T00:54:00;16.4;;;12.8;;
23252;SDS011;11795;47.054;15.408;2022-11-21T00:56:00;16.4;;;12.8;;
23252;SDS011;11795;47.054;15.408;2022-11-21T00:58:00;16.4;;;12.8;;
23252;SDS011;11795;47.054;15.408;2022-11-21T01:00:00;15.7;;;12.0;;
23252;SDS011;11795;47.054;15.408;2022-11-21T01:02:00;15.7;;;12.0;;
23252;SDS011;11795;47.054;15.408;2022-11-21T01:04:00;15.7;;;12.1;;
23252;SDS011;11795;47.054;15.408;2022-11-21T01:06:02;15.7;;;12.1;;
23252;SDS011;11795;47.054;15.408;2022-11-21T01:08:00;15.7;;;12.1;;
23252;SDS011;11795;47.054;15.408;2022-11-21T01:10:00;14.6;;;11.5;;
23252;SDS011;11795;47.054;15.408;2022-11-21T01:12:00;14.6;;;11.5;;
23252;SDS011;11795;47.054;15.408;2022-11-21T01:14:00;15.1;;;11.6;;
23252;SDS011;11795;47.054;15.408;2022-11-21T01:16:02;15.1;;;11.6;;
23252;SDS011;11795;47.054;15.408;2022-11-21T01:18:00;15.1;;;11.6;;
23252;SDS011;11795;47.054;15.408;2022-11-21T01:20:00;20.7;;;12.8;;
23252;SDS011;11795;47.054;15.408;2022-11-21T01:22:00;20.7;;;12.8;;
23252;SDS011;11795;47.054;15.408;2022-11-21T01:24:00;18.2;;;11.9;;
23252;SDS011;11795;47.054;15.408;2022-11-21T01:26:00;18.2;;;11.9;;
23252;SDS011;11795;47.054;15.408;2022-11-21T01:28:00;18.2;;;11.9;;
23252;SDS011;11795;47.054;15.408;2022-11-21T01:30:00;24.3;;;13.0;;
23252;SDS011;11795;47.054;15.408;2022-11-21T01:32:00;24.3;;;13.0;;
23252;SDS011;11795;47.054;15.408;2022-11-21T01:34:00;16.5;;;12.7;;
23252;SDS011;11795;47.054;15.408;2022-11-21T01:36:08;16.5;;;12.7;;
23252;SDS011;11795;47.054;15.408;2022-11-21T01:38:00;16.5;;;12.7;;
23252;SDS011;11795;47.054;15.408;2022-11-21T01:40:00;16.5;;;11.8;;
23252;SDS011;11795;47.054;15.408;2022-11-21T01:42:00;16.5;;;11.8;;
23252;SDS011;11795;47.054;15.408;2022-11-21T01:44:00;17.3;;;12.2;;
23252;SDS011;11795;47.054;15.408;2022-11-21T01:46:02;17.3;;;12.2;;
23252;SDS011;11795;47.054;15.408;2022-11-21T01:48:00;17.3;;;12.2;;
23252;SDS011;11795;47.054;15.408;2022-11-21T01:50:00;18.0;;;12.7;;
23252;SDS011;11795;47.054;15.408;2022-11-21T01:52:01;18.0;;;12.7;;
23252;SDS011;11795;47.054;15.408;2022-11-21T01:54:01;16.4;;;12.7;;
23252;SDS011;11795;47.054;15.408;2022-11-21T01:56:00;16.4;;;12.7;;
23252;SDS011;11795;47.054;15.408;2022-11-21T01:58:00;16.4;;;12.7;;
23252;SDS011;11795;47.054;15.408;2022-11-21T02:00:01;15.1;;;11.7;;
23252;SDS011;11795;47.054;15.408;2022-11-21T02:02:00;15.1;;;11.7;;
23252;SDS011;11795;47.054;15.408;2022-11-21T02:04:00;16.4;;;12.1;;
23252;SDS011;11795;47.054;15.408;2022-11-21T02:06:00;16.4;;;12.1;;
23252;SDS011;11795;47.054;15.408;2022-11-21T02:08:01;16.4;;;12.1;;
23252;SDS011;11795;47.054;15.408;2022-11-21T02:10:00;16.9;;;12.7;;
23252;SDS011;11795;47.054;15.408;2022-11-21T02:12:00;16.9;;;12.7;;
23252;SDS011;11795;47.054;15.408;2022-11-21T02:14:00;19.0;;;12.9;;
23252;SDS011;11795;47.054;15.408;2022-11-21T02:16:00;19.0;;;12.9;;
23252;SDS011;11795;47.054;15.408;2022-11-21T02:18:00;19.0;;;12.9;;
23252;SDS011;11795;47.054;15.408;2022-11-21T02:20:00;20.6;;;12.8;;
23252;SDS011;11795;47.054;15.408;2022-11-21T02:22:01;20.6;;;12.8;;
23252;SDS011;11795;47.054;15.408;2022-11-21T02:24:00;17.7;;;12.8;;
23252;SDS011;11795;47.054;15.408;2022-11-21T02:26:00;17.7;;;12.8;;
23252;SDS011;11795;47.054;15.408;2022-11-21T02:28:00;17.7;;;12.8;;
23252;SDS011;11795;47.054;15.408;2022-11-21T02:30:00;17.4;;;12.1;;
23252;SDS011;11795;47.054;15.408;2022-11-21T02:32:02;17.4;;;12.1;;
23252;SDS011;11795;47.054;15.408;2022-11-21T02:34:00;16.3;;;10.9;;
23252;SDS011;11795;47.054;15.408;2022-11-21T02:36:00;16.3;;;10.9;;
23252;SDS011;11795;47.054;15.408;2022-11-21T02:38:01;16.3;;;10.9;;
23252;SDS011;11795;47.054;15.408;2022-11-21T02:40:00;18.0;;;11.6;;
23252;SDS011;11795;47.054;15.408;2022-11-21T02:42:02;18.0;;;11.6;;
23252;SDS011;11795;47.054;15.408;2022-11-21T02:44:01;12.6;;;10.3;;
23252;SDS011;11795;47.054;15.408;2022-11-21T02:46:00;12.6;;;10.3;;
23252;SDS011;11795;47.054;15.408;2022-11-21T02:48:00;12.6;;;10.3;;
23252;SDS011;11795;47.054;15.408;2022-11-21T02:50:02;15.4;;;10.8;;
23252;SDS011;11795;47.054;15.408;2022-11-21T02:52:00;15.4;;;10.8;;
23252;SDS011;11795;47.054;15.408;2022-11-21T02:54:00;12.4;;;9.7;;
23252;SDS011;11795;47.054;15.408;2022-11-21T02:56:00;12.4;;;9.7;;
23252;SDS011;11795;47.054;15.408;2022-11-21T02:58:00;12.4;;;9.7;;
23252;SDS011;11795;47.054;15.408;2022-11-21T03:00:00;11.7;;;10.1;;
23252;SDS011;11795;47.054;15.408;2022-11-21T03:02:01;11.7;;;10.1;;
23252;SDS011;11795;47.054;15.408;2022-11-21T03:04:00;11.4;;;9.6;;
23252;SDS011;11795;47.054;15.408;2022-11-21T03:06:00;11.4;;;9.6;;
23252;SDS011;11795;47.054;15.408;2022-11-21T03:08:00;11.4;;;9.6;;
23252;SDS011;11795;47.054;15.408;2022-11-21T03:10:00;10.3;;;9.1;;
23252;SDS011;11795;47.054;15.408;2022-11-21T03:12:03;10.3;;;9.1;;
23252;SDS011;11795;47.054;15.408;2022-11-21T03:14:00;11.3;;;9.2;;
23252;SDS011;11795;47.054;15.408;2022-11-21T03:16:00;11.3;;;9.2;;
23252;SDS011;11795;47.054;15.408;2022-11-21T03:18:02;11.3;;;9.2;;
23252;SDS011;11795;47.054;15.408;2022-11-21T03:20:00;36.5;;;10.1;;
23252;SDS011;11795;47.054;15.408;2022-11-21T03:22:00;36.5;;;10.1;;
23252;SDS011;11795;47.054;15.408;2022-11-21T03:24:00;20.3;;;9.9;;
23252;SDS011;11795;47.054;15.408;2022-11-21T03:26:00;20.3;;;9.9;;
23252;SDS011;11795;47.054;15.408;2022-11-21T03:28:00;20.3;;;9.9;;
23252;SDS011;11795;47.054;15.408;2022-11-21T03:30:00;23.5;;;9.0;;
23252;SDS011;11795;47.054;15.408;2022-11-21T03:32:00;23.5;;;9.0;;
23252;SDS011;11795;47.054;15.408;2022-11-21T03:34:00;24.8;;;9.4;;
23252;SDS011;11795;47.054;15.408;2022-11-21T03:36:00;24.8;;;9.4;;
23252;SDS011;11795;47.054;15.408;2022-11-21T03:38:00;24.8;;;9.4;;
23252;SDS011;11795;47.054;15.408;2022-11-21T03:40:00;15.5;;;9.5;;
23252;SDS011;11795;47.054;15.408;2022-11-21T03:42:00;15.5;;;9.5;;
23252;SDS011;11795;47.054;15.408;2022-11-21T03:44:00;19.0;;;9.5;;
23252;SDS011;11795;47.054;15.408;2022-11-21T03:46:00;19.0;;;9.5;;
23252;SDS011;11795;47.054;15.408;2022-11-21T03:48:00;19.0;;;9.5;;
23252;SDS011;11795;47.054;15.408;2022-11-21T03:50:00;14.3;;;9.8;;
23252;SDS011;11795;47.054;15.408;2022-11-21T03:52:00;14.3;;;9.8;;
23252;SDS011;11795;47.054;15.408;2022-11-21T03:54:00;43.2;;;11.2;;
23252;SDS011;11795;47.054;15.408;2022-11-21T03:56:00;43.2;;;11.2;;
23252;SDS011;11795;47.054;15.408;2022-11-21T03:58:00;43.2;;;11.2;;
23252;SDS011;11795;47.054;15.408;2022-11-21T04:00:00;33.3;;;11.5;;
23252;SDS011;11795;47.054;15.408;2022-11-21T04:02:00;33.3;;;11.5;;
23252;SDS011;11795;47.054;15.408;2022-11-21T04:04:00;51.3;;;12.6;;
23252;SDS011;11795;47.054;15.408;2022-11-21T04:06:00;51.3;;;12.6;;
23252;SDS011;11795;47.054;15.408;2022-11-21T04:08:00;51.3;;;12.6;;
23252;SDS011;11795;47.054;15.408;2022-11-21T04:10:00;13.3;;;10.2;;
23252;SDS011;11795;47.054;15.408;2022-11-21T04:12:00;13.3;;;10.2;;
23252;SDS011;11795;47.054;15.408;2022-11-21T04:14:00;35.4;;;12.2;;
23252;SDS011;11795;47.054;15.408;2022-11-21T04:16:00;35.4;;;12.2;;
23252;SDS011;11795;47.054;15.408;2022-11-21T04:18:00;35.4;;;12.2;;
23252;SDS011;11795;47.054;15.408;2022-11-21T04:20:00;31.4;;;12.1;;
23252;SDS011;11795;47.054;15.408;2022-11-21T04:22:00;31.4;;;12.1;;
23252;SDS011;11795;47.054;15.408;2022-11-21T04:24:00;14.7;;;11.4;;
23252;SDS011;11795;47.054;15.408;2022-11-21T04:26:00;14.7;;;11.4;;
23252;SDS011;11795;47.054;15.408;2022-11-21T04:28:00;14.7;;;11.4;;
23252;SDS011;11795;47.054;15.408;2022-11-21T04:30:00;14.2;;;11.0;;
23252;SDS011;11795;47.054;15.408;2022-11-21T04:32:00;14.2;;;11.0;;
23252;SDS011;11795;47.054;15.408;2022-11-21T04:34:00;13.0;;;10.4;;
23252;SDS011;11795;47.054;15.408;2022-11-21T04:36:00;13.0;;;10.4;;
23252;SDS011;11795;47.054;15.408;2022-11-21T04:38:00;13.0;;;10.4;;
23252;SDS011;11795;47.054;15.408;2022-11-21T04:40:00;20.1;;;11.7;;
23252;SDS011;11795;47.054;15.408;2022-11-21T04:42:00;20.1;;;11.7;;
23252;SDS011;11795;47.054;15.408;2022-11-21T04:44:00;20.1;;;10.9;;
23252;SDS011;11795;47.054;15.408;2022-11-21T04:46:00;20.1;;;10.9;;
23252;SDS011;11795;47.054;15.408;2022-11-21T04:48:00;20.1;;;10.9;;
23252;SDS011;11795;47.054;15.408;2022-11-21T04:50:00;17.2;;;10.7;;
23252;SDS011;11795;47.054;15.408;2022-11-21T04:52:01;17.2;;;10.7;;
23252;SDS011;11795;47.054;15.408;2022-11-21T04:54:00;14.2;;;10.6;;
23252;SDS011;11795;47.054;15.408;2022-11-21T04:56:02;14.2;;;10.6;;
23252;SDS011;11795;47.054;15.408;2022-11-21T04:58:00;14.2;;;10.6;;
23252;SDS011;11795;47.054;15.408;2022-11-21T05:00:00;11.4;;;9.3;;
23252;SDS011;11795;47.054;15.408;2022-11-21T05:02:01;11.4;;;9.3;;
23252;SDS011;11795;47.054;15.408;2022-11-21T05:04:00;11.6;;;9.1;;
23252;SDS011;11795;47.054;15.408;2022-11-21T05:06:00;11.6;;;9.1;;
23252;SDS011;11795;47.054;15.408;2022-11-21T05:08:00;11.6;;;9.1;;
23252;SDS011;11795;47.054;15.408;2022-11-21T05:10:00;12.5;;;10.2;;
23252;SDS011;11795;47.054;15.408;2022-11-21T05:12:10;12.5;;;10.2;;
23252;SDS011;11795;47.054;15.408;2022-11-21T05:14:00;12.7;;;10.2;;
23252;SDS011;11795;47.054;15.408;2022-11-21T05:16:00;12.7;;;10.2;;
23252;SDS011;11795;47.054;15.408;2022-11-21T05:18:00;12.7;;;10.2;;
23252;SDS011;11795;47.054;15.408;2022-11-21T05:20:00;11.2;;;8.9;;
23252;SDS011;11795;47.054;15.408;2022-11-21T05:22:00;11.2;;;8.9;;
23252;SDS011;11795;47.054;15.408;2022-11-21T05:24:00;10.8;;;8.8;;
23252;SDS011;11795;47.054;15.408;2022-11-21T05:26:00;10.8;;;8.8;;
23252;SDS011;11795;47.054;15.408;2022-11-21T05:28:00;10.8;;;8.8;;
23252;SDS011;11795;47.054;15.408;2022-11-21T05:30:00;12.2;;;9.7;;
23252;SDS011;11795;47.054;15.408;2022-11-21T05:32:00;12.2;;;9.7;;
23252;SDS011;11795;47.054;15.408;2022-11-21T05:34:00;10.0;;;8.2;;
23252;SDS011;11795;47.054;15.408;2022-11-21T05:36:00;10.0;;;8.2;;
23252;SDS011;11795;47.054;15.408;2022-11-21T05:38:00;10.0;;;8.2;;
23252;SDS011;11795;47.054;15.408;2022-11-21T05:40:00;10.3;;;8.6;;
23252;SDS011;11795;47.054;15.408;2022-11-21T05:42:00;10.3;;;8.6;;
23252;SDS011;11795;47.054;15.408;2022-11-21T05:44:00;9.5;;;8.3;;
23252;SDS011;11795;47.054;15.408;2022-11-21T05:46:00;9.5;;;8.3;;
23252;SDS011;11795;47.054;15.408;2022-11-21T05:48:00;9.5;;;8.3;;
23252;SDS011;11795;47.054;15.408;2022-11-21T05:50:00;10.4;;;8.7;;
23252;SDS011;11795;47.054;15.408;2022-11-21T05:52:00;10.4;;;8.7;;
23252;SDS011;11795;47.054;15.408;2022-11-21T05:54:00;13.1;;;10.3;;
23252;SDS011;11795;47.054;15.408;2022-11-21T05:56:01;13.1;;;10.3;;
23252;SDS011;11795;47.054;15.408;2022-11-21T05:58:00;13.1;;;10.3;;
23252;SDS011;11795;47.054;15.408;2022-11-21T06:00:00;15.5;;;11.5;;
23252;SDS011;11795;47.054;15.408;2022-11-21T06:02:10;15.5;;;11.5;;
23252;SDS011;11795;47.054;15.408;2022-11-21T06:04:00;15.9;;;11.7;;
23252;SDS011;11795;47.054;15.408;2022-11-21T06:06:01;15.9;;;11.7;;
23252;SDS011;11795;47.054;15.408;2022-11-21T06:08:00;15.9;;;11.7;;
23252;SDS011;11795;47.054;15.408;2022-11-21T06:10:00;16.4;;;12.5;;
23252;SDS011;11795;47.054;15.408;2022-11-21T06:12:00;16.4;;;12.5;;
23252;SDS011;11795;47.054;15.408;2022-11-21T06:14:00;15.2;;;11.9;;
23252;SDS011;11795;47.054;15.408;2022-11-21T06:16:00;15.2;;;11.9;;
23252;SDS011;11795;47.054;15.408;2022-11-21T06:18:00;15.2;;;11.9;;
23252;SDS011;11795;47.054;15.408;2022-11-21T06:20:00;16.3;;;11.7;;
23252;SDS011;11795;47.054;15.408;2022-11-21T06:22:00;16.3;;;11.7;;
23252;SDS011;11795;47.054;15.408;2022-11-21T06:24:00;12.4;;;10.2;;
23252;SDS011;11795;47.054;15.408;2022-11-21T06:26:00;12.4;;;10.2;;
23252;SDS011;11795;47.054;15.408;2022-11-21T06:28:00;12.4;;;10.2;;
23252;SDS011;11795;47.054;15.408;2022-11-21T06:30:00;14.6;;;11.0;;
23252;SDS011;11795;47.054;15.408;2022-11-21T06:32:00;14.6;;;11.0;;
23252;SDS011;11795;47.054;15.408;2022-11-21T06:34:00;12.7;;;10.0;;
23252;SDS011;11795;47.054;15.408;2022-11-21T06:36:01;12.7;;;10.0;;
23252;SDS011;11795;47.054;15.408;2022-11-21T06:38:00;12.7;;;10.0;;
23252;SDS011;11795;47.054;15.408;2022-11-21T06:40:00;12.1;;;9.5;;
23252;SDS011;11795;47.054;15.408;2022-11-21T06:42:00;12.1;;;9.5;;
23252;SDS011;11795;47.054;15.408;2022-11-21T06:44:00;11.4;;;9.0;;
23252;SDS011;11795;47.054;15.408;2022-11-21T06:46:02;11.4;;;9.0;;
23252;SDS011;11795;47.054;15.408;2022-11-21T06:48:00;11.4;;;9.0;;
23252;SDS011;11795;47.054;15.408;2022-11-21T06:50:00;10.7;;;8.4;;
23252;SDS011;11795;47.054;15.408;2022-11-21T06:52:00;10.7;;;8.4;;
23252;SDS011;11795;47.054;15.408;2022-11-21T06:54:00;12.9;;;9.6;;
23252;SDS011;11795;47.054;15.408;2022-11-21T06:56:00;12.9;;;9.6;;
23252;SDS011;11795;47.054;15.408;2022-11-21T06:58:00;12.9;;;9.6;;
23252;SDS011;11795;47.054;15.408;2022-11-21T07:00:00;10.6;;;9.1;;
23252;SDS011;11795;47.054;15.408;2022-11-21T07:02:00;10.6;;;9.1;;
23252;SDS011;11795;47.054;15.408;2022-11-21T07:04:00;11.3;;;8.9;;
23252;SDS011;11795;47.054;15.408;2022-11-21T07:06:00;11.3;;;8.9;;
23252;SDS011;11795;47.054;15.408;2022-11-21T07:08:00;11.3;;;8.9;;
23252;SDS011;11795;47.054;15.408;2022-11-21T07:10:00;13.3;;;10.3;;
23252;SDS011;11795;47.054;15.408;2022-11-21T07:12:10;13.3;;;10.3;;
23252;SDS011;11795;47.054;15.408;2022-11-21T07:14:00;11.9;;;9.7;;
23252;SDS011;11795;47.054;15.408;2022-11-21T07:16:01;11.9;;;9.7;;
23252;SDS011;11795;47.054;15.408;2022-11-21T07:18:00;11.9;;;9.7;;
23252;SDS011;11795;47.054;15.408;2022-11-21T07:20:00;11.0;;;9.1;;
23252;SDS011;11795;47.054;15.408;2022-11-21T07:22:00;11.0;;;9.1;;
23252;SDS011;11795;47.054;15.408;2022-11-21T07:24:00;9.5;;;7.9;;
23252;SDS011;11795;47.054;15.408;2022-11-21T07:26:00;9.5;;;7.9;;
23252;SDS011;11795;47.054;15.408;2022-11-21T07:28:00;9.5;;;7.9;;
23252;SDS011;11795;47.054;15.408;2022-11-21T07:30:00;9.3;;;8.1;;
23252;SDS011;11795;47.054;15.408;2022-11-21T07:32:00;9.3;;;8.1;;
23252;SDS011;11795;47.054;15.408;2022-11-21T07:34:00;9.5;;;8.3;;
23252;SDS011;11795;47.054;15.408;2022-11-21T07:36:00;9.5;;;8.3;;
23252;SDS011;11795;47.054;15.408;2022-11-21T07:38:00;9.5;;;8.3;;
23252;SDS011;11795;47.054;15.408;2022-11-21T07:40:00;9.4;;;8.4;;
23252;SDS011;11795;47.054;15.408;2022-11-21T07:42:00;9.4;;;8.4;;
23252;SDS011;11795;47.054;15.408;2022-11-21T07:44:00;9.7;;;8.5;;
23252;SDS011;11795;47.054;15.408;2022-11-21T07:46:00;9.7;;;8.5;;
23252;SDS011;11795;47.054;15.408;2022-11-21T07:48:01;9.7;;;8.5;;
23252;SDS011;11795;47.054;15.408;2022-11-21T07:50:00;8.5;;;7.4;;
23252;SDS011;11795;47.054;15.408;2022-11-21T07:52:00;8.5;;;7.4;;
23252;SDS011;11795;47.054;15.408;2022-11-21T07:54:00;10.4;;;9.1;;
23252;SDS011;11795;47.054;15.408;2022-11-21T07:56:00;10.4;;;9.1;;
23252;SDS011;11795;47.054;15.408;2022-11-21T07:58:00;10.4;;;9.1;;
23252;SDS011;11795;47.054;15.408;2022-11-21T08:00:00;11.6;;;9.1;;
23252;SDS011;11795;47.054;15.408;2022-11-21T08:02:00;11.6;;;9.1;;
23252;SDS011;11795;47.054;15.408;2022-11-21T08:04:00;9.9;;;8.6;;
23252;SDS011;11795;47.054;15.408;2022-11-21T08:06:00;9.9;;;8.6;;
23252;SDS011;11795;47.054;15.408;2022-11-21T08:08:00;9.9;;;8.6;;
23252;SDS011;11795;47.054;15.408;2022-11-21T08:10:00;10.4;;;9.0;;
23252;SDS011;11795;47.054;15.408;2022-11-21T08:12:00;10.4;;;9.0;;
23252;SDS011;11795;47.054;15.408;2022-11-21T08:14:00;9.4;;;8.5;;
23252;SDS011;11795;47.054;15.408;2022-11-21T08:16:01;9.4;;;8.5;;
23252;SDS011;11795;47.054;15.408;2022-11-21T08:18:05;9.4;;;8.5;;
23252;SDS011;11795;47.054;15.408;2022-11-21T08:20:01;13.1;;;10.4;;
23252;SDS011;11795;47.054;15.408;2022-11-21T08:22:00;13.1;;;10.4;;
23252;SDS011;11795;47.054;15.408;2022-11-21T08:24:00;11.6;;;10.4;;
23252;SDS011;11795;47.054;15.408;2022-11-21T08:26:00;11.6;;;10.4;;
23252;SDS011;11795;47.054;15.408;2022-11-21T08:28:01;11.6;;;10.4;;
23252;SDS011;11795;47.054;15.408;2022-11-21T08:30:00;12.7;;;10.5;;
23252;SDS011;11795;47.054;15.408;2022-11-21T08:32:00;12.7;;;10.5;;
23252;SDS011;11795;47.054;15.408;2022-11-21T08:34:00;12.7;;;10.8;;
23252;SDS011;11795;47.054;15.408;2022-11-21T08:36:02;12.7;;;10.8;;
23252;SDS011;11795;47.054;15.408;2022-11-21T08:38:00;12.7;;;10.8;;
23252;SDS011;11795;47.054;15.408;2022-11-21T08:40:01;13.3;;;10.2;;
23252;SDS011;11795;47.054;15.408;2022-11-21T08:42:03;13.3;;;10.2;;
23252;SDS011;11795;47.054;15.408;2022-11-21T08:44:00;10.3;;;9.2;;
23252;SDS011;11795;47.054;15.408;2022-11-21T08:46:00;10.3;;;9.2;;
23252;SDS011;11795;47.054;15.408;2022-11-21T08:48:00;10.3;;;9.2;;
23252;SDS011;11795;47.054;15.408;2022-11-21T08:50:00;10.5;;;9.4;;
23252;SDS011;11795;47.054;15.408;2022-11-21T08:52:00;10.5;;;9.4;;
23252;SDS011;11795;47.054;15.408;2022-11-21T08:54:00;8.9;;;8.0;;
23252;SDS011;11795;47.054;15.408;2022-11-21T08:56:00;8.9;;;8.0;;
23252;SDS011;11795;47.054;15.408;2022-11-21T08:58:00;8.9;;;8.0;;
23252;SDS011;11795;47.054;15.408;2022-11-21T09:00:00;9.3;;;8.4;;
23252;SDS011;11795;47.054;15.408;2022-11-21T09:02:00;9.3;;;8.4;;
23252;SDS011;11795;47.054;15.408;2022-11-21T09:04:00;10.6;;;8.9;;
23252;SDS011;11795;47.054;15.408;2022-11-21T09:06:00;10.6;;;8.9;;
23252;SDS011;11795;47.054;15.408;2022-11-21T09:08:00;10.6;;;8.9;;
23252;SDS011;11795;47.054;15.408;2022-11-21T09:10:00;12.1;;;9.8;;
23252;SDS011;11795;47.054;15.408;2022-11-21T09:12:00;12.1;;;9.8;;
23252;SDS011;11795;47.054;15.408;2022-11-21T09:14:10;11.4;;;9.6;;
23252;SDS011;11795;47.054;15.408;2022-11-21T09:16:10;11.4;;;9.6;;
23252;SDS011;11795;47.054;15.408;2022-11-21T09:18:03;11.4;;;9.6;;
23252;SDS011;11795;47.054;15.408;2022-11-21T09:20:00;11.8;;;9.4;;
23252;SDS011;11795;47.054;15.408;2022-11-21T09:22:00;11.8;;;9.4;;
23252;SDS011;11795;47.054;15.408;2022-11-21T09:28:00;10.9;;;9.2;;
23252;SDS011;11795;47.054;15.408;2022-11-21T09:30:00;12.1;;;9.3;;
23252;SDS011;11795;47.054;15.408;2022-11-21T09:32:00;12.1;;;9.3;;
23252;SDS011;11795;47.054;15.408;2022-11-21T09:34:00;11.3;;;9.3;;
23252;SDS011;11795;47.054;15.408;2022-11-21T09:36:00;11.3;;;9.3;;
23252;SDS011;11795;47.054;15.408;2022-11-21T09:38:00;11.3;;;9.3;;
23252;SDS011;11795;47.054;15.408;2022-11-21T09:40:00;11.4;;;8.8;;
23252;SDS011;11795;47.054;15.408;2022-11-21T09:42:04;11.4;;;8.8;;
23252;SDS011;11795;47.054;15.408;2022-11-21T09:44:00;13.1;;;9.3;;
23252;SDS011;11795;47.054;15.408;2022-11-21T09:46:01;13.1;;;9.3;;
23252;SDS011;11795;47.054;15.408;2022-11-21T09:48:01;13.1;;;9.3;;
23252;SDS011;11795;47.054;15.408;2022-11-21T09:50:00;11.0;;;9.2;;
23252;SDS011;11795;47.054;15.408;2022-11-21T09:52:00;11.0;;;9.2;;
23252;SDS011;11795;47.054;15.408;2022-11-21T09:54:00;13.1;;;10.0;;
23252;SDS011;11795;47.054;15.408;2022-11-21T09:56:01;13.1;;;10.0;;
23252;SDS011;11795;47.054;15.408;2022-11-21T09:58:01;13.1;;;10.0;;
23252;SDS011;11795;47.054;15.408;2022-11-21T10:00:00;11.4;;;8.9;;
23252;SDS011;11795;47.054;15.408;2022-11-21T10:02:00;11.4;;;8.9;;
23252;SDS011;11795;47.054;15.408;2022-11-21T10:04:00;11.4;;;8.9;;
23252;SDS011;11795;47.054;15.408;2022-11-21T10:06:00;11.3;;;8.4;;
23252;SDS011;11795;47.054;15.408;2022-11-21T10:08:03;11.3;;;8.4;;
23252;SDS011;11795;47.054;15.408;2022-11-21T10:12:12;11.3;;;7.3;;
23252;SDS011;11795;47.054;15.408;2022-11-21T10:14:04;11.3;;;7.3;;
23252;SDS011;11795;47.054;15.408;2022-11-21T10:16:02;8.8;;;6.7;;
23252;SDS011;11795;47.054;15.408;2022-11-21T10:18:05;8.8;;;6.7;;
23252;SDS011;11795;47.054;15.408;2022-11-21T10:20:04;7.5;;;5.8;;
23252;SDS011;11795;47.054;15.408;2022-11-21T10:22:04;7.5;;;5.8;;
23252;SDS011;11795;47.054;15.408;2022-11-21T10:24:06;7.5;;;5.8;;
23252;SDS011;11795;47.054;15.408;2022-11-21T10:26:03;7.5;;;5.9;;
23252;SDS011;11795;47.054;15.408;2022-11-21T10:28:01;7.5;;;5.9;;
23252;SDS011;11795;47.054;15.408;2022-11-21T10:30:01;6.8;;;5.2;;
23252;SDS011;11795;47.054;15.408;2022-11-21T10:32:00;6.8;;;5.2;;
23252;SDS011;11795;47.054;15.408;2022-11-21T10:34:00;6.8;;;5.2;;
23252;SDS011;11795;47.054;15.408;2022-11-21T10:36:00;7.8;;;6.7;;
23252;SDS011;11795;47.054;15.408;2022-11-21T10:38:00;7.8;;;6.7;;
23252;SDS011;11795;47.054;15.408;2022-11-21T10:40:02;8.7;;;6.5;;
23252;SDS011;11795;47.054;15.408;2022-11-21T10:42:01;8.7;;;6.5;;
23252;SDS011;11795;47.054;15.408;2022-11-21T10:44:12;7.3;;;6.5;;
23252;SDS011;11795;47.054;15.408;2022-11-21T10:46:00;7.3;;;6.5;;
23252;SDS011;11795;47.054;15.408;2022-11-21T10:48:00;7.3;;;6.5;;
23252;SDS011;11795;47.054;15.408;2022-11-21T10:50:02;8.7;;;6.5;;
23252;SDS011;11795;47.054;15.408;2022-11-21T10:52:03;8.7;;;6.5;;
23252;SDS011;11795;47.054;15.408;2022-11-21T10:54:10;8.0;;;6.6;;
23252;SDS011;11795;47.054;15.408;2022-11-21T10:56:01;8.0;;;6.6;;
23252;SDS011;11795;47.054;15.408;2022-11-21T10:58:00;8.0;;;6.6;;
23252;SDS011;11795;47.054;15.408;2022-11-21T11:00:01;7.9;;;6.9;;
23252;SDS011;11795;47.054;15.408;2022-11-21T11:02:01;7.9;;;6.9;;
23252;SDS011;11795;47.054;15.408;2022-11-21T11:04:04;7.9;;;6.9;;
23252;SDS011;11795;47.054;15.408;2022-11-21T11:06:00;7.7;;;6.9;;
23252;SDS011;11795;47.054;15.408;2022-11-21T11:08:02;7.7;;;6.9;;
23252;SDS011;11795;47.054;15.408;2022-11-21T11:14:00;8.1;;;6.9;;
23252;SDS011;11795;47.054;15.408;2022-11-21T11:16:02;7.3;;;6.1;;
23252;SDS011;11795;47.054;15.408;2022-11-21T11:18:00;7.3;;;6.1;;
23252;SDS011;11795;47.054;15.408;2022-11-21T11:20:01;8.4;;;7.2;;
23252;SDS011;11795;47.054;15.408;2022-11-21T11:22:00;8.4;;;7.2;;
23252;SDS011;11795;47.054;15.408;2022-11-21T11:26:00;8.6;;;6.7;;
23252;SDS011;11795;47.054;15.408;2022-11-21T11:28:00;8.6;;;6.7;;
23252;SDS011;11795;47.054;15.408;2022-11-21T11:30:04;7.7;;;6.9;;
23252;SDS011;11795;47.054;15.408;2022-11-21T11:32:01;7.7;;;6.9;;
23252;SDS011;11795;47.054;15.408;2022-11-21T11:34:00;7.7;;;6.9;;
23252;SDS011;11795;47.054;15.408;2022-11-21T11:36:07;7.6;;;6.7;;
23252;SDS011;11795;47.054;15.408;2022-11-21T11:38:01;7.6;;;6.7;;
23252;SDS011;11795;47.054;15.408;2022-11-21T11:40:03;9.3;;;7.2;;
23252;SDS011;11795;47.054;15.408;2022-11-21T11:42:17;9.3;;;7.2;;
23252;SDS011;11795;47.054;15.408;2022-11-21T11:44:11;9.3;;;7.2;;
23252;SDS011;11795;47.054;15.408;2022-11-21T11:46:15;7.4;;;6.7;;
23252;SDS011;11795;47.054;15.408;2022-11-21T11:48:00;7.4;;;6.7;;
23252;SDS011;11795;47.054;15.408;2022-11-21T11:50:10;7.3;;;6.5;;
23252;SDS011;11795;47.054;15.408;2022-11-21T11:52:01;7.3;;;6.5;;
23252;SDS011;11795;47.054;15.408;2022-11-21T11:54:01;7.3;;;6.5;;
23252;SDS011;11795;47.054;15.408;2022-11-21T11:56:01;6.6;;;5.9;;
23252;SDS011;11795;47.054;15.408;2022-11-21T11:58:00;6.6;;;5.9;;
23252;SDS011;11795;47.054;15.408;2022-11-21T12:00:03;8.2;;;5.7;;
23252;SDS011;11795;47.054;15.408;2022-11-21T12:02:01;8.2;;;5.7;;
23252;SDS011;11795;47.054;15.408;2022-11-21T12:04:01;8.2;;;5.7;;
23252;SDS011;11795;47.054;15.408;2022-11-21T12:06:02;6.8;;;6.1;;
23252;SDS011;11795;47.054;15.408;2022-11-21T12:08:03;6.8;;;6.1;;
23252;SDS011;11795;47.054;15.408;2022-11-21T12:10:02;8.1;;;6.5;;
23252;SDS011;11795;47.054;15.408;2022-11-21T12:12:08;8.1;;;6.5;;